Time;durP1;ratioP1;P1;durP2;ratioP2;P2;SDS_P1;SDS_P2;PMS_P1;PMS_P2;Temp;Humidity;BMP_temperature;BMP_pressure;BME280_temperature;BME280_humidity;BME280_pressure;Samples;Min_cycle;Max_cycle;Signal;HPM_P1;HPM_P2
2022/10/15 00:04:49;;;;;;;14.2;18.7;;;;;;;11.3;85.8;98770;;;;
2022/10/15 00:15:49;;;;;;;14.2;18.7;;;;;;;11.5;86.2;98760;;;;
2022/10/15 00:25:49;;;;;;;11.2;15.9;;;;;;;11.6;86.3;98750;;;;
2022/10/15 00:35:50;;;;;;;11.2;15.9;;;;;;;11.7;86.4;98750;;;;
2022/10/15 00:45:49;;;;;;;11.2;15.9;;;;;;;11.8;85.7;98750;;;;
2022/10/15 00:56:49;;;;;;;11.6;17;;;;;;;11.6;85.6;98740;;;;
2022/10/15 01:06:49;;;;;;;11.6;17;;;;;;;11.6;85.3;98730;;;;
2022/10/15 01:17:49;;;;;;;11.6;17;;;;;;;11.3;85.1;98720;;;;
2022/10/15 01:28:49;;;;;;;14.3;17.7;;;;;;;11;85.3;98720;;;;
2022/10/15 01:38:49;;;;;;;14.3;17.7;;;;;;;10.6;85;98720;;;;
2022/10/15 01:49:49;;;;;;;14.3;17.7;;;;;;;10.3;85.3;98720;;;;
2022/10/15 02:00:49;;;;;;;14.8;19.2;;;;;;;10.2;85.9;98710;;;;
2022/10/15 02:11:50;;;;;;;14.8;19.2;;;;;;;10.1;87.1;98700;;;;
2022/10/15 02:22:49;;;;;;;14.8;19.2;;;;;;;10.2;88;98700;;;;
2022/10/15 02:33:49;;;;;;;13.2;17.9;;;;;;;10.3;87.9;98700;;;;
2022/10/15 02:44:49;;;;;;;13.2;17.9;;;;;;;10.3;88;98690;;;;
2022/10/15 02:55:49;;;;;;;12;15.1;;;;;;;10.4;88;98680;;;;
2022/10/15 03:05:49;;;;;;;12;15.1;;;;;;;10.5;88.4;98660;;;;
2022/10/15 03:15:49;;;;;;;12;15.1;;;;;;;10.6;88.5;98670;;;;
2022/10/15 03:25:49;;;;;;;11.6;14.6;;;;;;;10.7;88;98660;;;;
2022/10/15 03:35:50;;;;;;;11.6;14.6;;;;;;;10.6;87.4;98660;;;;
2022/10/15 03:45:49;;;;;;;11.6;14.6;;;;;;;10.3;87.1;98650;;;;
2022/10/15 03:55:50;;;;;;;11.1;15.3;;;;;;;10.2;86.7;98640;;;;
2022/10/15 04:06:49;;;;;;;11.1;15.3;;;;;;;10;86.9;98630;;;;
2022/10/15 04:17:50;;;;;;;11.1;15.3;;;;;;;9.8;87.1;98640;;;;
2022/10/15 04:28:50;;;;;;;14;18.8;;;;;;;9.7;87.2;98640;;;;
2022/10/15 04:39:49;;;;;;;14;18.8;;;;;;;10.1;88.7;98630;;;;
2022/10/15 04:49:49;;;;;;;14;18.8;;;;;;;10.3;88.7;98630;;;;
2022/10/15 05:00:49;;;;;;;13.7;19.4;;;;;;;10.3;88.1;98620;;;;
2022/10/15 05:10:49;;;;;;;13.7;19.4;;;;;;;10.7;88.5;98620;;;;
2022/10/15 05:20:50;;;;;;;13.7;19.4;;;;;;;11.3;87.7;98620;;;;
2022/10/15 05:31:49;;;;;;;12.8;17.5;;;;;;;11.6;86;98610;;;;
2022/10/15 05:41:49;;;;;;;12.8;17.5;;;;;;;12;83.4;98600;;;;
2022/10/15 05:52:49;;;;;;;12.8;17.5;;;;;;;12.3;82.4;98610;;;;
2022/10/15 06:02:50;;;;;;;12.8;19.1;;;;;;;12.7;81.2;98620;;;;
2022/10/15 06:13:50;;;;;;;12.8;19.1;;;;;;;13;80.7;98620;;;;
2022/10/15 06:23:50;;;;;;;12.8;19.1;;;;;;;13.2;80.2;98630;;;;
2022/10/15 06:34:50;;;;;;;11.6;14.6;;;;;;;13.6;78.9;98640;;;;
2022/10/15 06:44:50;;;;;;;11.6;14.6;;;;;;;13.9;78.4;98650;;;;
2022/10/15 06:55:49;;;;;;;12.5;15;;;;;;;14.1;77.4;98640;;;;
2022/10/15 07:05:50;;;;;;;12.5;15;;;;;;;14.2;76.8;98630;;;;
2022/10/15 07:15:52;;;;;;;12.5;15;;;;;;;14.5;77.2;98620;;;;
2022/10/15 07:25:50;;;;;;;12.6;15.5;;;;;;;14.7;75.5;98630;;;;
2022/10/15 07:36:49;;;;;;;12.6;15.5;;;;;;;15.2;75.1;98630;;;;
2022/10/15 07:46:50;;;;;;;12.6;15.5;;;;;;;15.7;75.2;98640;;;;
2022/10/15 07:56:50;;;;;;;12.5;15.6;;;;;;;16.3;73.2;98630;;;;
2022/10/15 08:07:49;;;;;;;12.5;15.6;;;;;;;16.8;70.6;98630;;;;
2022/10/15 08:17:50;;;;;;;12.5;15.6;;;;;;;17.2;68.1;98630;;;;
2022/10/15 08:28:50;;;;;;;12;17.4;;;;;;;17.5;65.3;98630;;;;
2022/10/15 08:38:50;;;;;;;12;17.4;;;;;;;18;65.9;98630;;;;
2022/10/15 08:48:50;;;;;;;12;17.4;;;;;;;18.2;62.1;98630;;;;
2022/10/15 08:59:50;;;;;;;10.8;13.2;;;;;;;18.6;60.5;98640;;;;
2022/10/15 09:09:50;;;;;;;10.8;13.2;;;;;;;19.1;59.6;98630;;;;
2022/10/15 09:19:50;;;;;;;10.8;13.2;;;;;;;19.4;57.1;98620;;;;
2022/10/15 09:30:50;;;;;;;10.1;12;;;;;;;19.3;55;98640;;;;
2022/10/15 09:41:50;;;;;;;10.1;12;;;;;;;19.4;54;98650;;;;
2022/10/15 09:51:50;;;;;;;10.1;12;;;;;;;19.5;54.5;98650;;;;
2022/10/15 10:02:50;;;;;;;9.5;11.3;;;;;;;19.4;54.9;98660;;;;
2022/10/15 10:13:50;;;;;;;9.5;11.3;;;;;;;19.2;55.2;98660;;;;
2022/10/15 10:23:50;;;;;;;9.5;11.3;;;;;;;19.2;55.6;98660;;;;
2022/10/15 10:33:51;;;;;;;8.9;11.7;;;;;;;19;55.9;98660;;;;
2022/10/15 10:44:50;;;;;;;8.9;11.7;;;;;;;19;54.8;98660;;;;
2022/10/15 10:54:50;;;;;;;8.4;12.2;;;;;;;19.1;54.2;98670;;;;
2022/10/15 11:05:50;;;;;;;8.4;12.2;;;;;;;18.9;54.5;98680;;;;
2022/10/15 11:16:50;;;;;;;8.4;12.2;;;;;;;19.1;55.5;98680;;;;
2022/10/15 11:26:50;;;;;;;8.1;10.8;;;;;;;19.3;56.7;98680;;;;
2022/10/15 11:37:50;;;;;;;8.1;10.8;;;;;;;19.9;58.6;98660;;;;
2022/10/15 11:48:50;;;;;;;8.1;10.8;;;;;;;20.2;53.2;98640;;;;
2022/10/15 11:59:50;;;;;;;7.7;11.1;;;;;;;20.4;57;98640;;;;
2022/10/15 12:10:50;;;;;;;7.7;11.1;;;;;;;20.3;55.1;98630;;;;
2022/10/15 12:20:50;;;;;;;7.7;11.1;;;;;;;20.2;55;98640;;;;
2022/10/15 12:30:50;;;;;;;8.2;12.3;;;;;;;20.4;56.3;98640;;;;
2022/10/15 12:40:50;;;;;;;8.2;12.3;;;;;;;20.5;55.1;98650;;;;
2022/10/15 12:50:50;;;;;;;8.2;12.3;;;;;;;20.7;55.3;98640;;;;
2022/10/15 13:00:50;;;;;;;7.4;10.1;;;;;;;20.3;54.7;98630;;;;
2022/10/15 13:11:50;;;;;;;7.4;10.1;;;;;;;20.2;54.4;98620;;;;
2022/10/15 13:21:50;;;;;;;7.4;10.1;;;;;;;19.9;56;98620;;;;
2022/10/15 13:32:50;;;;;;;8;13.3;;;;;;;19.8;54.8;98620;;;;
2022/10/15 13:42:50;;;;;;;8;13.3;;;;;;;19.6;55.9;98620;;;;
2022/10/15 13:53:50;;;;;;;8;13.3;;;;;;;19.2;55.3;98620;;;;
2022/10/15 14:03:50;;;;;;;6.8;9.2;;;;;;;18.6;54.5;98630;;;;
2022/10/15 14:14:50;;;;;;;6.8;9.2;;;;;;;18.3;54.7;98640;;;;
2022/10/15 14:24:50;;;;;;;8.3;13.8;;;;;;;18.2;54.6;98640;;;;
2022/10/15 14:35:50;;;;;;;8.3;13.8;;;;;;;17.9;56.4;98650;;;;
2022/10/15 14:46:50;;;;;;;8.3;13.8;;;;;;;17.6;58.2;98650;;;;
2022/10/15 14:57:50;;;;;;;7.3;10.9;;;;;;;17.4;58.2;98660;;;;
2022/10/15 15:07:50;;;;;;;7.3;10.9;;;;;;;17.1;58.3;98670;;;;
2022/10/15 15:18:50;;;;;;;7.3;10.9;;;;;;;16.8;59.3;98680;;;;
2022/10/15 15:28:50;;;;;;;10.2;16.7;;;;;;;16.6;60.1;98680;;;;
2022/10/15 15:38:50;;;;;;;10.2;16.7;;;;;;;16.4;61.2;98680;;;;
2022/10/15 15:48:50;;;;;;;10.2;16.7;;;;;;;16.2;61.7;98680;;;;
2022/10/15 15:59:50;;;;;;;10;15.2;;;;;;;16;62.1;98670;;;;
2022/10/15 16:10:50;;;;;;;10;15.2;;;;;;;15.7;62;98680;;;;
2022/10/15 16:21:50;;;;;;;10;15.2;;;;;;;15.4;62.2;98680;;;;
2022/10/15 16:32:50;;;;;;;11;16.2;;;;;;;15.3;62.2;98700;;;;
2022/10/15 16:43:50;;;;;;;11;16.2;;;;;;;15.2;63.4;98710;;;;
2022/10/15 16:53:50;;;;;;;11;16.2;;;;;;;15.1;62.9;98730;;;;
2022/10/15 17:04:50;;;;;;;10.3;15.5;;;;;;;15;63;98740;;;;
2022/10/15 17:14:50;;;;;;;10.3;15.5;;;;;;;15.1;62.8;98760;;;;
2022/10/15 17:25:50;;;;;;;10.7;13.9;;;;;;;15;63.5;98760;;;;
2022/10/15 17:35:50;;;;;;;10.7;13.9;;;;;;;14.9;64.5;98770;;;;
2022/10/15 17:45:50;;;;;;;10.7;13.9;;;;;;;14.9;64;98770;;;;
2022/10/15 17:55:50;;;;;;;13.9;17;;;;;;;14.9;64.5;98770;;;;
2022/10/15 18:06:50;;;;;;;13.9;17;;;;;;;14.8;64.7;98770;;;;
2022/10/15 18:16:50;;;;;;;13.9;17;;;;;;;14.7;65.3;98770;;;;
2022/10/15 18:27:50;;;;;;;13.2;17.6;;;;;;;14.4;65.9;98770;;;;
2022/10/15 18:37:50;;;;;;;13.2;17.6;;;;;;;14.2;66.5;98770;;;;
2022/10/15 18:47:50;;;;;;;13.2;17.6;;;;;;;14.2;66.7;98790;;;;
2022/10/15 18:57:50;;;;;;;14.9;17.9;;;;;;;14.1;67.5;98800;;;;
2022/10/15 19:07:54;;;;;;;14.9;17.9;;;;;;;14;68;98820;;;;
2022/10/15 19:17:50;;;;;;;14.9;17.9;;;;;;;13.9;69;98820;;;;
2022/10/15 19:28:50;;;;;;;25;32.3;;;;;;;13.7;71.1;98840;;;;
2022/10/15 19:38:50;;;;;;;25;32.3;;;;;;;13.6;71.6;98830;;;;
2022/10/15 19:48:50;;;;;;;25;32.3;;;;;;;13.5;72.7;98830;;;;
2022/10/15 19:59:50;;;;;;;29;34.6;;;;;;;13.5;72.6;98850;;;;
2022/10/15 20:10:50;;;;;;;29;34.6;;;;;;;13.5;73.1;98860;;;;
2022/10/15 20:20:50;;;;;;;29;34.6;;;;;;;13.4;74.7;98870;;;;
2022/10/15 20:31:50;;;;;;;18.5;26.3;;;;;;;13.5;74.2;98880;;;;
2022/10/15 20:41:50;;;;;;;18.5;26.3;;;;;;;13.4;73.9;98890;;;;
2022/10/15 20:51:50;;;;;;;18.5;26.3;;;;;;;13.5;74.2;98900;;;;
2022/10/15 21:01:50;;;;;;;15;17.9;;;;;;;13.5;74.2;98890;;;;
2022/10/15 21:11:50;;;;;;;15;17.9;;;;;;;13.5;73.8;98900;;;;
2022/10/15 21:22:50;;;;;;;15;17.9;;;;;;;13.4;74.6;98910;;;;
2022/10/15 21:33:50;;;;;;;14.5;18.7;;;;;;;13.4;74.8;98910;;;;
2022/10/15 21:43:50;;;;;;;14.5;18.7;;;;;;;13.4;75;98910;;;;
2022/10/15 21:53:50;;;;;;;14.5;18.7;;;;;;;13.4;76;98920;;;;
2022/10/15 22:03:50;;;;;;;13.4;17;;;;;;;13.3;76.6;98920;;;;
2022/10/15 22:13:50;;;;;;;13.4;17;;;;;;;13.4;76.6;98930;;;;
2022/10/15 22:24:50;;;;;;;13.6;17.6;;;;;;;13.5;76.5;98930;;;;
2022/10/15 22:35:50;;;;;;;13.6;17.6;;;;;;;13.6;76.5;98940;;;;
2022/10/15 22:46:50;;;;;;;13.6;17.6;;;;;;;13.7;76.5;98930;;;;
2022/10/15 22:57:51;;;;;;;10.3;12.5;;;;;;;13.8;76.6;98950;;;;
2022/10/15 23:07:50;;;;;;;10.3;12.5;;;;;;;13.7;77.5;98960;;;;
2022/10/15 23:18:50;;;;;;;10.3;12.5;;;;;;;13.7;77.1;98960;;;;
2022/10/15 23:28:50;;;;;;;10.7;13.7;;;;;;;13.7;77.3;98960;;;;
2022/10/15 23:38:50;;;;;;;10.7;13.7;;;;;;;13.8;76.8;98960;;;;
2022/10/15 23:48:50;;;;;;;10.7;13.7;;;;;;;13.8;76.5;98970;;;;
2022/10/15 23:58:50;;;;;;;11.2;14.3;;;;;;;13.9;76.3;98960;;;;
